createdAt,value
2017-07-17T00:03:19.502Z,14
2017-07-17T00:13:19.482Z,13
2017-07-17T00:23:19.549Z,11
2017-07-17T00:33:19.502Z,11
2017-07-17T00:43:19.492Z,12
2017-07-17T00:53:19.508Z,10
2017-07-17T01:03:19.591Z,10
2017-07-17T01:13:19.483Z,9
2017-07-17T01:23:19.604Z,11
2017-07-17T01:33:19.644Z,8
2017-07-17T01:43:19.505Z,6
2017-07-17T01:53:19.602Z,5
2017-07-17T02:03:19.485Z,6
2017-07-17T02:13:19.532Z,7
2017-07-17T02:23:19.502Z,7
2017-07-17T02:33:19.477Z,6
2017-07-17T02:43:20.523Z,7
2017-07-17T02:53:19.819Z,9
2017-07-17T03:03:19.517Z,7
2017-07-17T03:13:19.505Z,10
2017-07-17T03:23:19.554Z,14
2017-07-17T03:33:19.610Z,13
2017-07-17T03:43:19.568Z,10
2017-07-17T03:53:19.516Z,16
2017-07-17T04:03:19.514Z,14
2017-07-17T04:13:19.539Z,13
2017-07-17T04:23:19.503Z,11
2017-07-17T04:33:20.591Z,10
2017-07-17T04:43:19.532Z,8
2017-07-17T04:53:19.516Z,11
2017-07-17T05:03:19.517Z,11
2017-07-17T05:13:19.520Z,9
2017-07-17T05:23:19.623Z,9
2017-07-17T05:33:19.543Z,9
2017-07-17T05:43:19.516Z,10
2017-07-17T05:53:19.511Z,9
2017-07-17T06:03:19.521Z,8
2017-07-17T06:13:19.671Z,7
2017-07-17T06:23:19.520Z,6
2017-07-17T06:33:19.517Z,6
2017-07-17T06:43:19.524Z,6
2017-07-17T06:53:19.515Z,4
2017-07-17T07:03:19.882Z,3
2017-07-17T07:13:19.607Z,4
2017-07-17T07:23:19.611Z,4
2017-07-17T07:33:19.589Z,6
2017-07-17T07:43:19.664Z,5
2017-07-17T07:53:19.536Z,2
2017-07-17T08:03:19.620Z,7
2017-07-17T08:13:19.718Z,4
2017-07-17T08:23:19.531Z,4
2017-07-17T08:33:19.547Z,3
2017-07-17T08:43:19.574Z,2
2017-07-17T08:53:19.584Z,2
2017-07-17T09:03:19.563Z,1
2017-07-17T09:13:19.603Z,4
2017-07-17T09:23:19.583Z,5
2017-07-17T09:33:19.689Z,2
2017-07-17T09:43:19.644Z,3
2017-07-17T09:53:19.584Z,2
2017-07-17T10:03:19.594Z,4
2017-07-17T10:13:19.590Z,3
2017-07-17T10:23:19.603Z,2
2017-07-17T10:33:19.617Z,3
2017-07-17T10:43:19.610Z,2
2017-07-17T10:53:19.588Z,2
2017-07-17T11:03:19.596Z,4
2017-07-17T11:13:19.682Z,2
2017-07-17T11:23:19.581Z,3
2017-07-17T11:33:19.331Z,3
2017-07-17T11:43:19.635Z,3
2017-07-17T12:03:19.481Z,2
2017-07-17T12:13:19.569Z,2
2017-07-17T12:23:19.758Z,2
2017-07-17T12:33:19.549Z,2
2017-07-17T12:43:19.517Z,2
2017-07-17T12:53:19.561Z,1
2017-07-17T13:03:19.561Z,2
2017-07-17T13:13:19.579Z,3
2017-07-17T13:23:19.543Z,2
2017-07-17T13:33:19.576Z,2
2017-07-17T13:43:19.628Z,2
2017-07-17T13:53:19.652Z,3
2017-07-17T14:03:19.598Z,2
2017-07-17T14:13:19.598Z,2
2017-07-17T14:23:19.596Z,3
2017-07-17T14:33:19.647Z,2
2017-07-17T14:43:22.116Z,1
2017-07-17T14:53:19.868Z,5
2017-07-17T15:03:19.583Z,3
2017-07-17T15:13:19.829Z,5
2017-07-17T15:23:19.641Z,4
2017-07-17T15:33:19.644Z,4
2017-07-17T15:43:19.623Z,3
2017-07-17T15:53:19.659Z,3
2017-07-17T16:03:19.679Z,3
2017-07-17T16:13:19.650Z,4
2017-07-17T16:23:19.574Z,1
2017-07-17T16:33:19.796Z,3
2017-07-17T16:43:21.654Z,1
2017-07-17T16:53:19.645Z,2
2017-07-17T17:03:19.650Z,2
2017-07-17T17:13:19.704Z,3
2017-07-17T17:23:20.150Z,3
2017-07-17T17:33:20.549Z,2
2017-07-17T17:43:19.658Z,4
2017-07-17T17:53:19.575Z,2
2017-07-17T18:03:19.874Z,7
2017-07-17T18:13:19.656Z,4
2017-07-17T18:23:19.706Z,2
2017-07-17T18:33:20.709Z,6
2017-07-17T18:43:19.614Z,2
2017-07-17T18:53:19.640Z,2
2017-07-17T19:03:19.664Z,3
2017-07-17T19:13:19.658Z,3
2017-07-17T19:23:19.687Z,3
2017-07-17T19:33:19.773Z,2
2017-07-17T19:43:19.724Z,2
2017-07-17T19:53:19.677Z,2
2017-07-17T20:03:19.677Z,2
2017-07-17T20:13:19.701Z,2
2017-07-17T20:23:19.704Z,2
2017-07-17T20:33:19.645Z,4
2017-07-17T20:43:19.836Z,5
2017-07-17T20:53:19.882Z,4
2017-07-17T21:03:19.901Z,3
2017-07-17T21:13:19.700Z,4
2017-07-17T21:23:20.076Z,4
2017-07-17T21:33:19.741Z,2
2017-07-17T21:43:19.597Z,3
2017-07-17T21:53:20.069Z,5
2017-07-17T22:03:19.733Z,7
2017-07-17T22:13:19.626Z,4
2017-07-17T22:23:19.607Z,3
2017-07-17T22:33:19.623Z,4
2017-07-17T22:43:19.658Z,3
2017-07-17T22:53:19.884Z,3
2017-07-17T23:03:19.619Z,5
2017-07-17T23:13:19.684Z,7
2017-07-17T23:23:19.642Z,5
2017-07-17T23:33:19.747Z,4
2017-07-17T23:43:19.849Z,4
2017-07-17T23:53:19.569Z,5
